Time;durP1;ratioP1;P1;durP2;ratioP2;P2;SDS_P1;SDS_P2;PMS_P1;PMS_P2;Temp;Humidity;BMP_temperature;BMP_pressure;BME280_temperature;BME280_humidity;BME280_pressure;Samples;Min_cycle;Max_cycle;Signal;HPM_P1;HPM_P2
2021/09/23 00:00:13;;;;;;;17.35;10.30;;;14.00;89.70;;;;;;4892910;29;20033;-68
2021/09/23 00:05:15;;;;;;;12.93;9.38;;;14.00;89.50;;;;;;4892702;29;20045;-68
2021/09/23 00:07:42;;;;;;;11.68;7.82;;;14.00;89.20;;;;;;4893815;29;20095;-68
2021/09/23 00:10:10;;;;;;;15.20;8.07;;;14.00;88.60;;;;;;4893970;29;20048;-68
2021/09/23 00:12:36;;;;;;;11.05;8.05;;;14.00;88.50;;;;;;4894326;29;20044;-68
2021/09/23 00:15:04;;;;;;;13.82;8.90;;;13.90;88.30;;;;;;4892317;29;20119;-68
2021/09/23 00:17:29;;;;;;;13.55;8.48;;;13.90;88.40;;;;;;4893143;29;20043;-68
2021/09/23 00:19:55;;;;;;;14.75;10.40;;;13.90;88.60;;;;;;4893231;29;20032;-68
2021/09/23 00:22:21;;;;;;;15.13;11.02;;;13.80;88.80;;;;;;4890624;29;20048;-68
2021/09/23 00:24:47;;;;;;;14.77;11.43;;;13.80;89.00;;;;;;4893888;29;20035;-69
2021/09/23 00:27:12;;;;;;;15.55;10.65;;;13.80;89.20;;;;;;4892525;29;20044;-69
2021/09/23 00:29:38;;;;;;;13.85;10.48;;;13.70;89.40;;;;;;4892704;29;20079;-68
2021/09/23 00:32:04;;;;;;;15.60;10.23;;;13.70;89.70;;;;;;4894032;29;20056;-68
2021/09/23 00:34:30;;;;;;;17.83;11.63;;;13.70;90.30;;;;;;4891010;29;20032;-68
2021/09/23 00:36:56;;;;;;;19.75;12.60;;;13.70;89.90;;;;;;4890634;29;20032;-68
2021/09/23 00:39:23;;;;;;;17.70;12.75;;;13.70;89.80;;;;;;4892198;29;20681;-68
2021/09/23 00:41:50;;;;;;;16.75;12.80;;;13.80;89.60;;;;;;4891251;29;20032;-68
2021/09/23 00:44:19;;;;;;;22.83;13.82;;;13.70;89.60;;;;;;4892195;29;20123;-68
2021/09/23 00:46:46;;;;;;;25.52;15.60;;;13.80;90.10;;;;;;4893515;29;20060;-68
2021/09/23 00:49:13;;;;;;;24.98;16.40;;;13.80;89.80;;;;;;4888887;29;20032;-68
2021/09/23 00:51:40;;;;;;;23.48;15.18;;;13.80;89.40;;;;;;4894094;29;20577;-69
2021/09/23 00:54:06;;;;;;;19.75;14.93;;;13.80;89.30;;;;;;4890948;29;20024;-68
2021/09/23 00:56:32;;;;;;;24.33;14.93;;;13.80;89.30;;;;;;4889875;29;20036;-68
2021/09/23 00:58:59;;;;;;;20.20;14.40;;;13.80;89.40;;;;;;4891302;29;20037;-68
2021/09/23 01:01:25;;;;;;;22.83;13.88;;;13.80;89.40;;;;;;4899245;29;20421;-68
2021/09/23 01:03:54;;;;;;;24.05;16.40;;;13.80;89.60;;;;;;4897916;29;20111;-68
2021/09/23 01:06:20;;;;;;;25.92;16.63;;;13.70;89.80;;;;;;4893515;29;20628;-68
2021/09/23 01:08:57;;;;;;;23.40;15.52;;;13.80;89.80;;;;;;4889026;29;20135;-68
2021/09/23 01:11:25;;;;;;;22.92;14.57;;;13.80;89.80;;;;;;4891702;29;20040;-68
2021/09/23 01:13:51;;;;;;;21.38;14.70;;;13.80;89.80;;;;;;4888844;29;20064;-68
2021/09/23 01:16:31;;;;;;;22.52;15.32;;;13.70;89.90;;;;;;4889791;29;20111;-68
2021/09/23 01:19:07;;;;;;;20.05;12.82;;;13.80;89.90;;;;;;4891913;29;20143;-68
2021/09/23 01:21:34;;;;;;;20.20;14.77;;;13.80;89.90;;;;;;4890432;29;20094;-68
2021/09/23 01:24:02;;;;;;;23.27;15.82;;;13.80;90.00;;;;;;4891795;29;20690;-68
2021/09/23 01:26:29;;;;;;;29.27;17.05;;;13.80;89.80;;;;;;4889649;29;20127;-68
2021/09/23 01:29:02;;;;;;;26.02;16.60;;;13.80;89.60;;;;;;4890377;29;20072;-68
2021/09/23 01:31:35;;;;;;;26.25;15.27;;;13.80;89.40;;;;;;4896463;29;20759;-68
2021/09/23 01:34:01;;;;;;;32.70;19.45;;;13.80;89.50;;;;;;4899709;29;20568;-68
2021/09/23 01:36:28;;;;;;;30.20;19.30;;;13.80;89.60;;;;;;4892543;29;20585;-68
2021/09/23 01:38:53;;;;;;;28.10;18.23;;;13.80;89.70;;;;;;4897925;29;20039;-68
2021/09/23 01:41:19;;;;;;;30.30;18.92;;;13.80;89.90;;;;;;4898213;29;20666;-68
2021/09/23 01:43:47;;;;;;;30.88;20.45;;;13.80;90.00;;;;;;4898171;29;20582;-69
2021/09/23 01:46:13;;;;;;;32.15;20.10;;;13.80;90.00;;;;;;4897194;29;20040;-68
2021/09/23 01:48:50;;;;;;;29.77;18.67;;;13.80;89.60;;;;;;4895832;29;20778;-67
2021/09/23 01:51:16;;;;;;;30.80;18.20;;;13.80;89.80;;;;;;4895689;29;20089;-68
2021/09/23 01:53:42;;;;;;;25.95;17.00;;;13.80;89.90;;;;;;4893148;29;20078;-69
2021/09/23 01:56:08;;;;;;;28.00;19.33;;;13.80;89.70;;;;;;4895511;29;20046;-69
2021/09/23 01:58:35;;;;;;;26.48;17.48;;;13.80;89.80;;;;;;4894579;29;20060;-69
2021/09/23 02:01:01;;;;;;;27.63;18.17;;;13.80;89.80;;;;;;4893168;29;20044;-68
2021/09/23 02:03:27;;;;;;;23.13;15.82;;;13.80;89.70;;;;;;4894817;29;20147;-69
2021/09/23 02:06:04;;;;;;;26.10;17.58;;;13.80;89.60;;;;;;4893452;29;20071;-69
2021/09/23 02:08:30;;;;;;;26.83;16.38;;;13.80;89.80;;;;;;4894857;29;20047;-69
2021/09/23 02:10:57;;;;;;;29.98;19.08;;;13.80;90.00;;;;;;4891984;29;20505;-69
2021/09/23 02:13:29;;;;;;;29.67;18.80;;;13.80;90.10;;;;;;4893716;29;20059;-68
2021/09/23 02:15:55;;;;;;;29.10;18.08;;;13.80;90.00;;;;;;4893056;29;20744;-69
2021/09/23 02:18:21;;;;;;;23.90;16.52;;;13.80;89.80;;;;;;4894554;29;20157;-69
2021/09/23 02:20:47;;;;;;;28.17;18.73;;;13.80;89.80;;;;;;4893851;29;20139;-69
2021/09/23 02:23:13;;;;;;;33.13;19.10;;;13.80;90.00;;;;;;4895031;29;20027;-69
2021/09/23 02:25:41;;;;;;;29.23;18.80;;;13.70;89.90;;;;;;4893118;29;20041;-69
2021/09/23 02:28:06;;;;;;;30.98;19.40;;;13.70;89.90;;;;;;4896310;29;20044;-68
2021/09/23 02:30:32;;;;;;;30.77;20.20;;;13.70;90.10;;;;;;4895240;29;20126;-69
2021/09/23 02:32:58;;;;;;;31.40;19.17;;;13.70;90.00;;;;;;4894438;29;20147;-69
2021/09/23 02:35:24;;;;;;;31.77;19.42;;;13.70;90.10;;;;;;4893397;29;20091;-69
2021/09/23 02:37:50;;;;;;;30.80;19.73;;;13.70;90.10;;;;;;4897622;29;20079;-68
2021/09/23 02:40:16;;;;;;;30.83;18.90;;;13.80;90.00;;;;;;4895131;29;20045;-68
2021/09/23 02:42:42;;;;;;;30.40;20.42;;;13.70;90.00;;;;;;4893861;29;20032;-68
2021/09/23 02:45:09;;;;;;;34.65;19.98;;;13.80;90.00;;;;;;4896999;29;20111;-68
2021/09/23 02:47:35;;;;;;;34.92;21.50;;;13.80;90.10;;;;;;4893810;29;20040;-69
2021/09/23 02:50:02;;;;;;;29.67;19.50;;;13.80;90.10;;;;;;4894463;29;20043;-69
2021/09/23 02:52:28;;;;;;;29.63;19.35;;;13.70;90.00;;;;;;4895925;29;20035;-69
2021/09/23 02:54:53;;;;;;;30.88;18.90;;;13.70;90.00;;;;;;4894318;29;20466;-69
2021/09/23 02:57:19;;;;;;;30.95;19.35;;;13.70;90.00;;;;;;4892504;29;20037;-69
2021/09/23 02:59:45;;;;;;;27.38;18.77;;;13.70;90.00;;;;;;4895097;29;20032;-68
2021/09/23 03:02:11;;;;;;;28.33;19.60;;;13.60;90.00;;;;;;4894010;29;20032;-69
2021/09/23 03:04:37;;;;;;;34.92;22.25;;;13.60;90.00;;;;;;4893586;29;20047;-69
2021/09/23 03:07:03;;;;;;;33.00;21.92;;;13.60;90.00;;;;;;4892367;29;20717;-69
2021/09/23 03:09:29;;;;;;;28.20;18.60;;;13.60;90.00;;;;;;4894657;29;20040;-69
2021/09/23 03:11:54;;;;;;;32.72;21.13;;;13.60;90.00;;;;;;4893529;29;20040;-68
2021/09/23 03:14:20;;;;;;;35.50;21.20;;;13.60;90.10;;;;;;4900105;29;20044;-69
2021/09/23 03:16:46;;;;;;;30.70;20.80;;;13.50;90.10;;;;;;4895059;29;20032;-69
2021/09/23 03:19:11;;;;;;;28.15;18.63;;;13.50;90.20;;;;;;4893690;29;20033;-69
2021/09/23 03:21:38;;;;;;;25.50;17.95;;;13.50;90.20;;;;;;4901091;29;20915;-68
2021/09/23 03:24:05;;;;;;;31.63;20.88;;;13.50;90.20;;;;;;4890398;29;20516;-69
2021/09/23 03:26:31;;;;;;;30.73;19.10;;;13.40;90.30;;;;;;4894864;29;20091;-69
2021/09/23 03:28:57;;;;;;;26.48;17.42;;;13.40;90.30;;;;;;4892403;29;20787;-69
2021/09/23 03:31:23;;;;;;;34.92;19.80;;;13.40;90.30;;;;;;4894373;29;20144;-69
2021/09/23 03:33:48;;;;;;;26.02;17.02;;;13.40;90.40;;;;;;4893876;29;20523;-69
2021/09/23 03:36:14;;;;;;;25.15;17.10;;;13.40;90.30;;;;;;4892381;29;20036;-69
2021/09/23 03:38:41;;;;;;;26.73;17.33;;;13.40;90.40;;;;;;4896535;29;20044;-69
2021/09/23 03:41:07;;;;;;;23.88;17.40;;;13.40;90.40;;;;;;4895337;29;20066;-69
2021/09/23 03:43:33;;;;;;;25.00;17.33;;;13.30;90.40;;;;;;4879245;29;20036;-69
2021/09/23 03:46:04;;;;;;;29.73;19.25;;;13.30;90.40;;;;;;4892631;29;20043;-68
2021/09/23 03:48:31;;;;;;;24.67;16.75;;;13.30;90.50;;;;;;4892634;29;20043;-69
2021/09/23 03:50:58;;;;;;;27.50;18.30;;;13.30;90.40;;;;;;4893735;29;20512;-68
2021/09/23 03:53:24;;;;;;;28.42;17.38;;;13.30;90.30;;;;;;4890628;29;20657;-69
2021/09/23 03:55:50;;;;;;;29.85;18.95;;;13.30;90.30;;;;;;4895685;29;20086;-68
2021/09/23 03:58:16;;;;;;;36.40;21.35;;;13.30;90.40;;;;;;4901882;29;20040;-69
2021/09/23 04:00:42;;;;;;;31.95;19.63;;;13.20;90.50;;;;;;4895194;29;20115;-69
2021/09/23 04:03:08;;;;;;;28.20;17.92;;;13.30;90.60;;;;;;4894436;29;20036;-69
2021/09/23 04:05:34;;;;;;;30.17;19.40;;;13.20;90.50;;;;;;4896800;29;20116;-69
2021/09/23 04:08:01;;;;;;;29.73;19.88;;;13.20;90.50;;;;;;4898090;29;20040;-69
2021/09/23 04:10:29;;;;;;;30.38;18.45;;;13.20;90.50;;;;;;4899042;29;20450;-67
2021/09/23 04:12:55;;;;;;;31.90;18.40;;;13.20;90.60;;;;;;4892200;29;20036;-69
2021/09/23 04:15:23;;;;;;;34.75;21.77;;;13.20;90.50;;;;;;4899470;29;20036;-69
2021/09/23 04:17:50;;;;;;;33.35;19.80;;;13.10;90.60;;;;;;4895318;29;20044;-69
2021/09/23 04:20:16;;;;;;;29.73;19.83;;;13.10;90.60;;;;;;4894760;29;20175;-69
2021/09/23 04:22:49;;;;;;;31.58;19.75;;;13.10;90.60;;;;;;4893808;29;20043;-69
2021/09/23 04:25:15;;;;;;;32.47;20.50;;;13.10;90.70;;;;;;4894056;29;20036;-69
2021/09/23 04:27:41;;;;;;;32.03;20.25;;;13.10;90.60;;;;;;4901074;29;20050;-69
2021/09/23 04:30:09;;;;;;;32.80;20.27;;;13.10;90.70;;;;;;4908056;29;20138;-69
2021/09/23 04:32:35;;;;;;;33.58;20.80;;;13.10;90.70;;;;;;4892567;29;20032;-69
2021/09/23 04:35:00;;;;;;;39.03;22.48;;;13.00;90.70;;;;;;4891505;29;20047;-69
2021/09/23 04:37:26;;;;;;;34.22;22.00;;;13.00;90.70;;;;;;4900399;29;20594;-69
2021/09/23 04:39:52;;;;;;;33.38;20.33;;;13.10;90.80;;;;;;4890875;29;20036;-69
2021/09/23 04:42:18;;;;;;;33.40;20.98;;;13.00;90.70;;;;;;4878141;29;20172;-68
2021/09/23 04:44:43;;;;;;;37.53;23.52;;;13.10;90.70;;;;;;4895187;29;20036;-68
2021/09/23 04:47:09;;;;;;;33.95;22.17;;;13.10;90.70;;;;;;4892317;29;20144;-68
2021/09/23 04:49:38;;;;;;;36.55;23.13;;;13.10;90.80;;;;;;4895429;29;20161;-69
2021/09/23 04:52:05;;;;;;;31.35;20.52;;;13.10;90.80;;;;;;4899902;29;20036;-68
2021/09/23 04:54:31;;;;;;;35.03;21.10;;;13.00;90.80;;;;;;4897493;29;20122;-69
2021/09/23 04:56:57;;;;;;;30.75;20.63;;;13.00;90.80;;;;;;4880590;29;20396;-69
2021/09/23 04:59:23;;;;;;;34.35;21.73;;;13.00;90.90;;;;;;4898261;29;20038;-68
2021/09/23 05:01:49;;;;;;;37.30;23.10;;;13.00;90.80;;;;;;4894036;29;20033;-68
2021/09/23 05:04:15;;;;;;;34.33;21.98;;;13.00;90.70;;;;;;4893279;29;20119;-68
2021/09/23 05:06:41;;;;;;;36.22;21.10;;;13.10;90.70;;;;;;4894916;29;20039;-68
2021/09/23 05:09:08;;;;;;;40.28;23.45;;;13.00;90.70;;;;;;4890050;29;20081;-70
2021/09/23 05:11:34;;;;;;;38.90;23.08;;;13.00;90.80;;;;;;4891349;29;20601;-68
2021/09/23 05:14:00;;;;;;;37.65;23.40;;;13.00;90.80;;;;;;4890276;29;20032;-68
2021/09/23 05:16:26;;;;;;;44.95;25.17;;;13.00;90.80;;;;;;4897581;29;20029;-68
2021/09/23 05:18:53;;;;;;;37.65;22.90;;;13.00;90.80;;;;;;4896270;29;20602;-69
2021/09/23 05:21:18;;;;;;;36.92;22.98;;;13.10;90.80;;;;;;4895332;29;20541;-69
2021/09/23 05:23:44;;;;;;;32.47;21.52;;;13.10;90.60;;;;;;4893733;29;20032;-68
2021/09/23 05:26:10;;;;;;;31.77;20.40;;;13.20;90.60;;;;;;4890312;29;20112;-69
2021/09/23 05:28:37;;;;;;;38.47;22.75;;;13.20;90.60;;;;;;4893087;29;20096;-68
2021/09/23 05:31:03;;;;;;;42.38;24.88;;;13.20;90.50;;;;;;4894707;29;20095;-68
2021/09/23 05:33:29;;;;;;;46.83;26.08;;;13.30;90.40;;;;;;4893940;29;20111;-68
2021/09/23 05:35:55;;;;;;;36.58;24.27;;;13.40;90.30;;;;;;4893881;29;20481;-69
2021/09/23 05:38:23;;;;;;;33.63;21.55;;;13.40;90.20;;;;;;4897488;29;20040;-69
2021/09/23 05:40:49;;;;;;;36.17;22.05;;;13.40;90.10;;;;;;4895902;29;20604;-69
2021/09/23 05:43:15;;;;;;;36.10;23.25;;;13.40;90.10;;;;;;4893829;29;20111;-69
2021/09/23 05:45:41;;;;;;;35.67;21.85;;;13.50;89.70;;;;;;4896791;29;20123;-69
2021/09/23 05:48:06;;;;;;;37.83;22.52;;;13.50;89.60;;;;;;4889845;29;20069;-69
2021/09/23 05:50:32;;;;;;;32.70;21.38;;;13.50;89.60;;;;;;4893491;29;20044;-68
2021/09/23 05:52:58;;;;;;;34.60;22.15;;;13.60;89.80;;;;;;4892232;29;20119;-68
2021/09/23 05:55:25;;;;;;;31.33;19.67;;;13.60;89.90;;;;;;4891580;29;20046;-69
2021/09/23 05:57:53;;;;;;;33.30;21.92;;;13.70;89.80;;;;;;4890929;29;20032;-69
2021/09/23 06:00:20;;;;;;;44.10;25.48;;;13.80;89.80;;;;;;4892374;29;20040;-69
2021/09/23 06:02:46;;;;;;;38.03;23.95;;;13.90;89.10;;;;;;4897238;29;20120;-70
2021/09/23 06:05:15;;;;;;;45.75;24.88;;;14.00;88.00;;;;;;4889235;29;20144;-69
2021/09/23 06:07:41;;;;;;;41.55;25.55;;;14.00;87.60;;;;;;4891652;29;20223;-69
2021/09/23 06:10:08;;;;;;;44.90;26.20;;;14.00;87.30;;;;;;4894565;29;20044;-69
2021/09/23 06:12:35;;;;;;;36.55;23.05;;;14.10;86.60;;;;;;4888263;29;20159;-69
2021/09/23 06:15:01;;;;;;;42.88;23.90;;;14.10;86.80;;;;;;4893624;29;20044;-69
2021/09/23 06:17:29;;;;;;;51.88;29.25;;;14.10;87.20;;;;;;4891927;29;20040;-69
2021/09/23 06:19:55;;;;;;;36.55;24.38;;;14.20;86.70;;;;;;4898022;29;20120;-69
2021/09/23 06:22:21;;;;;;;39.22;23.85;;;14.30;86.50;;;;;;4896420;29;20043;-70
2021/09/23 06:24:47;;;;;;;43.80;25.40;;;14.30;86.30;;;;;;4897562;29;20035;-70
2021/09/23 06:27:13;;;;;;;38.28;24.92;;;14.40;85.80;;;;;;4895803;29;20039;-70
2021/09/23 06:29:38;;;;;;;38.33;23.15;;;14.50;85.60;;;;;;4897346;29;20123;-68
2021/09/23 06:32:04;;;;;;;46.22;26.33;;;14.50;85.20;;;;;;4896761;29;20060;-68
2021/09/23 06:34:31;;;;;;;36.58;21.08;;;14.50;85.00;;;;;;4893519;29;20135;-69
2021/09/23 06:37:00;;;;;;;40.03;24.92;;;14.60;84.80;;;;;;4896754;29;20036;-69
2021/09/23 06:39:26;;;;;;;37.88;23.67;;;14.60;84.90;;;;;;4901840;29;20130;-69
2021/09/23 06:41:51;;;;;;;43.30;24.95;;;14.60;84.50;;;;;;4894917;29;20143;-74
2021/09/23 06:44:17;;;;;;;45.78;25.17;;;14.60;84.50;;;;;;4893947;29;20124;-69
2021/09/23 06:46:43;;;;;;;43.70;25.10;;;14.60;84.60;;;;;;4897499;29;20040;-69
2021/09/23 06:49:09;;;;;;;40.83;25.85;;;14.50;84.80;;;;;;4894140;29;20045;-69
2021/09/23 06:51:34;;;;;;;43.30;25.13;;;14.50;84.80;;;;;;4897653;29;20036;-69
2021/09/23 06:54:00;;;;;;;41.83;25.35;;;14.60;85.00;;;;;;4886917;29;20047;-69
2021/09/23 06:56:26;;;;;;;42.75;25.58;;;14.60;84.80;;;;;;4887116;29;20068;-70
2021/09/23 06:58:51;;;;;;;43.22;25.17;;;14.60;85.10;;;;;;4904507;29;20532;-69
2021/09/23 07:01:30;;;;;;;43.17;24.95;;;14.60;84.80;;;;;;4905666;29;20131;-69
2021/09/23 07:04:22;;;;;;;42.75;25.95;;;14.60;85.00;;;;;;4886601;29;20079;-69
2021/09/23 07:06:54;;;;;;;37.95;23.35;;;14.80;85.00;;;;;;4884775;29;20622;-68
2021/09/23 07:09:25;;;;;;;39.67;25.38;;;14.90;84.60;;;;;;4884546;29;20493;-69
2021/09/23 07:11:51;;;;;;;39.55;24.13;;;15.10;84.30;;;;;;4884446;29;20044;-69
2021/09/23 07:14:17;;;;;;;40.42;25.58;;;15.20;84.00;;;;;;4884724;29;20116;-69
2021/09/23 07:16:46;;;;;;;43.53;23.65;;;15.20;83.30;;;;;;4886290;29;20405;-68
2021/09/23 07:19:11;;;;;;;43.20;25.77;;;15.20;83.40;;;;;;4890614;29;20044;-70
2021/09/23 07:21:38;;;;;;;42.38;25.58;;;15.30;83.40;;;;;;4903244;29;20043;-69
2021/09/23 07:24:04;;;;;;;38.85;23.27;;;15.40;83.00;;;;;;4903362;29;20054;-69
2021/09/23 07:26:31;;;;;;;40.92;23.17;;;15.60;82.20;;;;;;4900593;29;20032;-69
2021/09/23 07:28:58;;;;;;;38.38;23.90;;;15.50;81.60;;;;;;4885687;29;20037;-69
2021/09/23 07:31:24;;;;;;;46.75;26.55;;;15.60;82.20;;;;;;4888218;29;20041;-69
2021/09/23 07:33:50;;;;;;;40.80;23.67;;;15.80;81.70;;;;;;4889570;29;20047;-69
2021/09/23 07:36:18;;;;;;;38.92;22.70;;;16.00;80.70;;;;;;4885616;29;20481;-69
2021/09/23 07:38:43;;;;;;;33.53;22.83;;;16.10;79.80;;;;;;4884681;29;20124;-70
2021/09/23 07:41:09;;;;;;;40.22;23.27;;;16.10;79.50;;;;;;4884601;29;20115;-70
2021/09/23 07:43:35;;;;;;;34.30;20.95;;;16.20;79.50;;;;;;4885022;29;20771;-70
2021/09/23 07:46:01;;;;;;;40.85;22.90;;;16.40;79.50;;;;;;4885466;29;20036;-69
2021/09/23 07:48:28;;;;;;;33.95;21.20;;;16.50;78.50;;;;;;4883551;29;20036;-69
2021/09/23 07:50:57;;;;;;;30.63;20.63;;;16.60;77.60;;;;;;4887527;29;20598;-68
2021/09/23 07:53:25;;;;;;;27.63;19.48;;;16.70;77.60;;;;;;4886932;29;20829;-68
2021/09/23 07:55:52;;;;;;;35.45;19.20;;;16.80;77.20;;;;;;4889251;29;20111;-69
2021/09/23 07:58:17;;;;;;;31.52;19.25;;;17.10;76.30;;;;;;4916985;29;20032;-67
2021/09/23 08:00:43;;;;;;;48.15;19.77;;;17.20;76.40;;;;;;4902334;29;20059;-69
2021/09/23 08:03:09;;;;;;;28.05;17.40;;;17.20;75.20;;;;;;4903206;29;20036;-69
2021/09/23 08:05:35;;;;;;;33.80;18.70;;;17.30;75.60;;;;;;4902101;29;20032;-68
2021/09/23 08:08:02;;;;;;;28.98;18.45;;;17.40;74.80;;;;;;4897742;29;20044;-69
2021/09/23 08:10:28;;;;;;;34.83;19.05;;;17.50;74.10;;;;;;4886139;29;20040;-66
2021/09/23 08:12:54;;;;;;;24.13;16.42;;;17.60;73.00;;;;;;4901761;29;20032;-69
2021/09/23 08:15:20;;;;;;;26.10;17.60;;;17.70;73.90;;;;;;4901019;29;20040;-69
2021/09/23 08:18:04;;;;;;;31.58;17.33;;;17.80;73.30;;;;;;4883515;29;20528;-69
2021/09/23 08:20:58;;;;;;;27.13;17.63;;;17.80;73.60;;;;;;4884489;29;20112;-69
2021/09/23 08:23:24;;;;;;;29.45;15.80;;;17.90;72.70;;;;;;4882992;29;20151;-69
2021/09/23 08:25:52;;;;;;;25.25;15.60;;;17.80;72.40;;;;;;4901291;29;20896;-69
2021/09/23 08:28:23;;;;;;;26.67;15.82;;;17.90;72.10;;;;;;4900366;29;20603;-69
2021/09/23 08:30:50;;;;;;;29.25;15.98;;;17.80;72.00;;;;;;4901683;29;20036;-69
2021/09/23 08:33:16;;;;;;;27.63;16.38;;;17.90;72.30;;;;;;4901315;29;20138;-68
2021/09/23 08:35:42;;;;;;;26.48;14.98;;;17.90;72.20;;;;;;4900756;29;20044;-69
2021/09/23 08:38:08;;;;;;;24.73;14.52;;;18.00;71.60;;;;;;4899937;29;20044;-68
2021/09/23 08:40:34;;;;;;;21.60;15.27;;;18.20;71.40;;;;;;4900415;29;20036;-69
2021/09/23 08:43:01;;;;;;;22.58;13.98;;;18.20;70.50;;;;;;4902543;29;20044;-69
2021/09/23 08:45:26;;;;;;;22.83;15.02;;;18.30;71.30;;;;;;4901772;29;20933;-69
2021/09/23 08:47:53;;;;;;;22.67;14.18;;;18.30;71.50;;;;;;4900582;29;20047;-69
2021/09/23 08:50:20;;;;;;;20.63;13.43;;;18.40;70.30;;;;;;4900958;29;20091;-69
2021/09/23 08:52:48;;;;;;;27.40;14.88;;;18.40;67.50;;;;;;4902373;29;20409;-69
2021/09/23 08:55:28;;;;;;;25.90;14.52;;;18.40;67.80;;;;;;4890949;29;20044;-69
2021/09/23 08:58:03;;;;;;;23.20;13.23;;;18.40;69.70;;;;;;4881817;29;20573;-70
2021/09/23 09:00:31;;;;;;;19.98;12.75;;;18.40;69.00;;;;;;4882094;29;20044;-69
2021/09/23 09:03:08;;;;;;;23.48;13.25;;;18.50;68.90;;;;;;4882652;29;20056;-69
2021/09/23 09:05:54;;;;;;;19.35;12.07;;;18.80;67.20;;;;;;4899575;29;20051;-68
2021/09/23 09:08:50;;;;;;;20.48;13.20;;;19.10;66.60;;;;;;4900002;29;20702;-69
2021/09/23 09:11:20;;;;;;;18.55;12.63;;;19.20;65.70;;;;;;4868360;29;20037;-69
2021/09/23 09:13:49;;;;;;;20.65;12.50;;;19.40;66.00;;;;;;4881972;29;20036;-68
2021/09/23 09:16:17;;;;;;;31.25;14.82;;;19.40;64.70;;;;;;4883893;29;20025;-70
2021/09/23 09:18:45;;;;;;;27.75;15.73;;;19.30;65.30;;;;;;4895824;29;20035;-69
2021/09/23 09:21:13;;;;;;;28.33;15.63;;;19.20;64.80;;;;;;4881930;29;20048;-70
2021/09/23 09:23:57;;;;;;;24.45;13.48;;;19.10;64.50;;;;;;4894762;29;20119;-69
2021/09/23 09:26:33;;;;;;;23.45;13.25;;;19.20;66.00;;;;;;4900271;29;20035;-70
2021/09/23 09:29:02;;;;;;;39.33;16.98;;;19.20;66.30;;;;;;4899323;29;20039;-69
2021/09/23 09:31:28;;;;;;;41.35;17.83;;;19.20;64.50;;;;;;4901770;29;20048;-69
2021/09/23 09:33:59;;;;;;;24.08;14.20;;;19.20;64.60;;;;;;4901729;29;20040;-69
2021/09/23 09:36:41;;;;;;;25.77;14.50;;;19.10;64.10;;;;;;4900049;29;20040;-68
2021/09/23 09:39:13;;;;;;;22.95;13.38;;;19.10;64.60;;;;;;4899946;29;20772;-70
2021/09/23 09:41:42;;;;;;;20.02;12.50;;;19.10;65.80;;;;;;4898502;29;20040;-68
2021/09/23 09:44:12;;;;;;;22.98;13.45;;;19.10;66.00;;;;;;4889355;29;20032;-69
2021/09/23 09:46:42;;;;;;;20.67;12.57;;;19.10;65.30;;;;;;4881533;29;20119;-67
2021/09/23 09:49:09;;;;;;;21.95;12.45;;;19.30;64.90;;;;;;4881101;29;20933;-69
2021/09/23 09:51:38;;;;;;;29.63;13.77;;;19.30;64.80;;;;;;4900716;29;20052;-69
2021/09/23 09:54:05;;;;;;;23.05;12.63;;;19.50;64.60;;;;;;4897393;29;20036;-68
2021/09/23 09:56:34;;;;;;;26.15;11.88;;;19.70;63.80;;;;;;4903848;29;20116;-69
2021/09/23 09:59:07;;;;;;;22.40;11.90;;;19.90;63.20;;;;;;4903459;29;20713;-70
2021/09/23 10:01:33;;;;;;;17.83;11.10;;;20.00;61.20;;;;;;4885037;29;20842;-70
2021/09/23 10:04:01;;;;;;;15.02;9.68;;;20.10;61.90;;;;;;4885775;29;20036;-69
2021/09/23 10:06:27;;;;;;;19.60;10.70;;;20.30;62.00;;;;;;4893328;29;20032;-69
2021/09/23 10:08:54;;;;;;;16.95;11.00;;;20.40;60.40;;;;;;4894916;29;20044;-70
2021/09/23 10:11:21;;;;;;;18.30;10.52;;;20.40;61.40;;;;;;4894505;29;20036;-70
2021/09/23 10:13:47;;;;;;;15.77;10.30;;;20.30;61.10;;;;;;4894579;29;20074;-69
2021/09/23 10:16:14;;;;;;;15.40;10.35;;;20.30;61.80;;;;;;4895704;29;20593;-69
2021/09/23 10:18:43;;;;;;;17.17;9.82;;;20.20;60.80;;;;;;4902771;29;20087;-70
2021/09/23 10:21:09;;;;;;;19.17;10.55;;;20.10;62.40;;;;;;4885790;29;20041;-69
2021/09/23 10:23:41;;;;;;;15.68;9.82;;;20.00;61.50;;;;;;4896528;29;20032;-69
2021/09/23 10:26:15;;;;;;;17.15;10.07;;;20.10;62.10;;;;;;4904778;29;20044;-73
2021/09/23 10:28:46;;;;;;;20.23;9.13;;;20.10;61.50;;;;;;4903152;29;20044;-73
2021/09/23 10:31:18;;;;;;;18.73;9.40;;;20.20;61.60;;;;;;4901486;29;20040;-68
2021/09/23 10:33:46;;;;;;;18.38;8.95;;;20.40;60.90;;;;;;4901374;29;20099;-69
2021/09/23 10:36:15;;;;;;;16.48;9.63;;;20.60;60.70;;;;;;4903145;29;20046;-69
2021/09/23 10:38:42;;;;;;;12.02;7.60;;;20.60;59.50;;;;;;4891819;29;20060;-69
2021/09/23 10:41:10;;;;;;;14.48;9.18;;;20.50;60.70;;;;;;4890553;29;20973;-69
2021/09/23 10:43:38;;;;;;;12.30;7.97;;;20.50;59.90;;;;;;4900619;29;20047;-70
2021/09/23 10:46:04;;;;;;;16.52;8.82;;;20.30;61.30;;;;;;4896222;29;20048;-71
2021/09/23 10:48:46;;;;;;;12.43;8.15;;;20.30;61.30;;;;;;4899482;29;20036;-71
2021/09/23 10:51:15;;;;;;;12.20;7.15;;;20.40;61.90;;;;;;4903272;29;20043;-71
2021/09/23 10:53:50;;;;;;;11.98;6.82;;;20.50;62.00;;;;;;4904322;29;20078;-69
2021/09/23 10:56:22;;;;;;;10.05;6.18;;;20.60;60.60;;;;;;4903470;29;20710;-68
2021/09/23 10:58:53;;;;;;;14.68;7.00;;;20.70;60.40;;;;;;4896946;29;20036;-69
2021/09/23 11:01:28;;;;;;;15.15;9.25;;;20.70;59.20;;;;;;4897644;29;20048;-69
2021/09/23 11:03:57;;;;;;;12.20;7.55;;;20.70;59.40;;;;;;4892734;29;20064;-69
2021/09/23 11:06:39;;;;;;;9.43;6.50;;;20.70;58.10;;;;;;4885775;29;20036;-69
2021/09/23 11:09:20;;;;;;;10.25;5.80;;;20.50;58.60;;;;;;4883922;29;20037;-69
2021/09/23 11:11:56;;;;;;;9.82;5.32;;;20.40;58.50;;;;;;4901349;29;20090;-69
2021/09/23 11:14:23;;;;;;;10.90;5.85;;;20.30;59.60;;;;;;4899702;29;20119;-69
2021/09/23 11:16:54;;;;;;;9.18;5.43;;;20.30;59.20;;;;;;4898046;29;20047;-69
2021/09/23 11:19:23;;;;;;;8.77;4.35;;;20.30;59.40;;;;;;4884873;29;20855;-69
2021/09/23 11:21:54;;;;;;;8.07;4.68;;;20.40;58.70;;;;;;4884180;29;20040;-69
2021/09/23 11:24:26;;;;;;;11.55;4.65;;;20.50;59.50;;;;;;4884463;29;20033;-69
2021/09/23 11:26:53;;;;;;;5.10;3.47;;;20.40;58.80;;;;;;4887824;29;20087;-69
2021/09/23 11:29:21;;;;;;;7.25;3.63;;;20.40;59.10;;;;;;4899221;29;20127;-68
2021/09/23 11:31:55;;;;;;;7.18;3.30;;;20.60;59.10;;;;;;4902925;29;20039;-69
2021/09/23 11:34:34;;;;;;;5.68;2.90;;;20.70;59.70;;;;;;4902376;29;20040;-70
2021/09/23 11:37:03;;;;;;;9.95;3.42;;;20.90;60.20;;;;;;4903253;29;20036;-68
2021/09/23 11:39:31;;;;;;;4.07;2.53;;;21.00;56.60;;;;;;4891363;29;20040;-69
2021/09/23 11:42:14;;;;;;;4.88;2.67;;;21.10;58.00;;;;;;4885705;29;20032;-69
2021/09/23 11:44:42;;;;;;;3.88;2.17;;;21.00;55.90;;;;;;4900358;29;20049;-69
2021/09/23 11:47:16;;;;;;;4.25;2.33;;;20.90;57.10;;;;;;4902529;29;20039;-69
2021/09/23 11:49:49;;;;;;;4.70;2.22;;;20.90;56.90;;;;;;4903052;29;20091;-68
2021/09/23 11:52:17;;;;;;;5.32;2.17;;;20.70;56.20;;;;;;4902511;29;20032;-69
2021/09/23 11:54:44;;;;;;;5.07;2.30;;;20.70;56.20;;;;;;4897455;29;20036;-69
2021/09/23 11:57:24;;;;;;;3.78;2.15;;;20.70;56.70;;;;;;4885399;29;20540;-69
2021/09/23 11:59:56;;;;;;;4.60;2.35;;;20.80;55.10;;;;;;4890936;29;20045;-69
2021/09/23 12:02:22;;;;;;;8.45;2.67;;;21.00;55.70;;;;;;4885604;29;20092;-69
2021/09/23 12:04:56;;;;;;;3.78;2.40;;;21.00;55.30;;;;;;4902040;29;20036;-69
2021/09/23 12:07:23;;;;;;;5.50;2.08;;;21.00;54.90;;;;;;4903726;29;20067;-69
2021/09/23 12:10:06;;;;;;;3.92;2.10;;;21.10;56.50;;;;;;4901503;29;20171;-69
2021/09/23 12:12:35;;;;;;;5.53;1.80;;;21.20;56.00;;;;;;4902290;29;20068;-69
2021/09/23 12:15:01;;;;;;;4.30;1.77;;;21.30;56.90;;;;;;4901485;29;20296;-69
2021/09/23 12:17:27;;;;;;;5.03;2.00;;;21.50;55.00;;;;;;4882168;29;20084;-69
2021/09/23 12:19:58;;;;;;;2.20;1.60;;;21.50;53.20;;;;;;4883020;29;20505;-69
2021/09/23 12:22:36;;;;;;;3.17;1.80;;;21.40;54.00;;;;;;4882725;29;20033;-69
2021/09/23 12:25:16;;;;;;;7.03;2.33;;;21.40;54.20;;;;;;4900672;29;20123;-69
2021/09/23 12:27:43;;;;;;;3.08;1.67;;;21.50;54.80;;;;;;4898250;29;20064;-70
2021/09/23 12:30:10;;;;;;;2.25;1.70;;;21.50;54.00;;;;;;4889835;29;20055;-69
2021/09/23 12:32:49;;;;;;;2.03;1.67;;;21.40;54.50;;;;;;4882831;29;20036;-71
2021/09/23 12:35:19;;;;;;;6.32;1.88;;;21.40;55.40;;;;;;4888144;29;20032;-69
2021/09/23 12:37:49;;;;;;;4.25;1.70;;;21.40;53.70;;;;;;4882662;29;20112;-69